Time;durP1;ratioP1;P1;durP2;ratioP2;P2;SDS_P1;SDS_P2;PMS_P1;PMS_P2;Temp;Humidity;BMP_temperature;BMP_pressure;BME280_temperature;BME280_humidity;BME280_pressure;Samples;Min_cycle;Max_cycle;Signal;HPM_P1;HPM_P2
2021/11/27 00:08:35;;;;;;;9.98;3.00;;;;;;;3.47;83.12;97764.97;20900007;28;20497;-70
2021/11/27 00:18:36;;;;;;;7.70;3.10;;;;;;;3.29;84.42;97763.75;20901176;28;20041;-68
2021/11/27 00:28:38;;;;;;;9.02;3.50;;;;;;;3.11;86.12;97756.50;20899866;28;20418;-69
2021/11/27 00:38:40;;;;;;;10.52;3.40;;;;;;;3.13;86.15;97757.34;20899728;28;20088;-67
2021/11/27 00:48:41;;;;;;;7.03;2.97;;;;;;;3.11;87.17;97720.31;20919142;28;20095;-69
2021/11/27 00:58:45;;;;;;;7.40;3.50;;;;;;;3.14;86.00;97709.91;20926522;28;20052;-70
2021/11/27 01:08:48;;;;;;;8.02;2.30;;;;;;;3.09;85.70;97696.25;20924888;28;20401;-70
2021/11/27 01:18:51;;;;;;;6.97;2.00;;;;;;;3.17;85.44;97683.97;20926950;28;20045;-68
2021/11/27 01:28:52;;;;;;;4.63;1.60;;;;;;;3.29;84.48;97678.41;20926248;28;20053;-68
2021/11/27 01:38:54;;;;;;;3.80;1.40;;;;;;;3.37;84.57;97673.03;20923431;28;20056;-68
2021/11/27 01:48:57;;;;;;;4.13;1.40;;;;;;;3.40;85.80;97666.91;20925626;28;20060;-69
2021/11/27 01:58:59;;;;;;;5.55;1.50;;;;;;;3.33;86.49;97672.25;20916063;28;20460;-68
2021/11/27 02:09:05;;;;;;;3.85;1.25;;;;;;;3.38;85.99;97666.09;20910540;28;20053;-68
2021/11/27 02:19:08;;;;;;;3.45;1.40;;;;;;;3.34;87.43;97658.44;20910660;28;20049;-69
2021/11/27 02:29:14;;;;;;;4.50;1.70;;;;;;;3.33;87.58;97637.81;20908491;28;20477;-67
2021/11/27 02:39:17;;;;;;;3.15;1.30;;;;;;;3.37;87.45;97628.22;20908250;28;20123;-67
2021/11/27 02:49:19;;;;;;;4.10;1.70;;;;;;;3.32;88.13;97618.84;20908220;28;20399;-68
2021/11/27 02:59:22;;;;;;;6.15;1.80;;;;;;;3.23;88.92;97621.72;20907380;28;20397;-69
2021/11/27 03:09:25;;;;;;;3.60;1.80;;;;;;;3.25;89.54;97625.09;20905857;28;20049;-67
2021/11/27 03:19:32;;;;;;;4.53;1.60;;;;;;;3.17;90.09;97627.09;20905440;28;20152;-67
2021/11/27 03:29:35;;;;;;;4.53;1.63;;;;;;;3.09;91.82;97639.41;20905036;28;20238;-67
2021/11/27 03:39:37;;;;;;;4.15;1.77;;;;;;;3.17;91.62;97632.25;20904383;28;20087;-67
2021/11/27 03:49:39;;;;;;;3.97;1.80;;;;;;;3.06;92.55;97635.16;20902134;28;20111;-68
2021/11/27 03:59:41;;;;;;;2.78;1.40;;;;;;;3.14;91.67;97622.00;20901850;28;20037;-67
2021/11/27 04:09:42;;;;;;;4.13;1.70;;;;;;;3.04;92.16;97630.94;20901857;28;20107;-68
2021/11/27 04:19:44;;;;;;;3.55;1.48;;;;;;;3.09;92.74;97629.91;20899582;28;20072;-67
2021/11/27 04:29:45;;;;;;;4.00;1.83;;;;;;;3.16;92.51;97643.47;20900001;28;20045;-69
2021/11/27 04:39:47;;;;;;;3.97;1.60;;;;;;;3.25;91.63;97648.38;20898853;28;20135;-68
2021/11/27 04:49:49;;;;;;;3.50;1.70;;;;;;;3.23;91.95;97641.56;20898876;28;20171;-68
2021/11/27 04:59:50;;;;;;;3.60;1.52;;;;;;;3.13;92.43;97651.34;20898794;28;20405;-68
2021/11/27 05:09:52;;;;;;;5.18;1.83;;;;;;;3.14;92.20;97663.38;20895958;28;20056;-68
2021/11/27 05:19:54;;;;;;;3.75;1.70;;;;;;;3.12;92.21;97660.00;20897763;28;20048;-68
2021/11/27 05:29:55;;;;;;;5.20;2.03;;;;;;;3.12;92.60;97675.50;20994114;22;20105;-71
2021/11/27 05:39:57;;;;;;;4.47;1.70;;;;;;;3.12;91.73;97678.09;20960614;28;20166;-72
2021/11/27 05:49:59;;;;;;;2.95;1.20;;;;;;;3.16;91.96;97699.50;20994703;28;20406;-71
2021/11/27 06:00:01;;;;;;;3.42;1.27;;;;;;;3.19;92.38;97687.34;20994142;28;20103;-70
2021/11/27 06:10:05;;;;;;;3.95;1.40;;;;;;;3.20;92.51;97688.19;20994296;28;20044;-71
2021/11/27 06:20:07;;;;;;;2.60;1.20;;;;;;;3.19;91.82;97687.34;20993958;28;20103;-73
2021/11/27 06:30:09;;;;;;;4.15;1.25;;;;;;;3.33;91.48;97721.41;20974118;28;20437;-70
2021/11/27 06:40:12;;;;;;;3.97;1.30;;;;;;;3.29;91.94;97719.78;20990918;28;20539;-74
2021/11/27 06:50:14;;;;;;;4.57;1.95;;;;;;;3.29;91.35;97747.38;20991125;28;20306;-71
2021/11/27 07:00:16;;;;;;;5.85;2.20;;;;;;;3.27;91.64;97755.19;20990939;28;20559;-71
2021/11/27 07:20:34;;;;;;;6.30;2.33;;;;;;;3.45;91.67;97782.28;13547200;26;20504;-83
2021/11/27 07:30:36;;;;;;;6.43;2.55;;;;;;;3.44;91.29;97803.00;21161496;28;20325;-83
2021/11/27 07:40:38;;;;;;;5.72;2.60;;;;;;;3.51;91.76;97828.66;21219286;27;20047;-83
2021/11/27 07:50:39;;;;;;;4.00;1.92;;;;;;;3.61;91.64;97834.41;21248606;27;20050;-82
2021/11/27 08:00:41;;;;;;;5.20;2.13;;;;;;;3.62;91.89;97843.88;21231048;27;20039;-82
2021/11/27 08:10:43;;;;;;;4.25;2.00;;;;;;;3.76;91.31;97864.16;21140308;28;20044;-81
2021/11/27 08:20:49;;;;;;;3.60;1.80;;;;;;;3.73;91.46;97870.25;21126365;28;20048;-80
2021/11/27 08:31:11;;;;;;;5.80;2.08;;;;;;;3.82;90.75;97875.19;21117528;28;20097;-83
2021/11/27 08:41:12;;;;;;;5.03;1.80;;;;;;;3.94;90.22;97889.53;21109847;28;20095;-82
2021/11/27 08:51:14;;;;;;;3.13;1.40;;;;;;;3.90;90.19;97900.00;21138161;28;20066;-83
2021/11/27 09:01:15;;;;;;;4.55;1.70;;;;;;;4.02;89.83;97904.81;21060147;28;20040;-83
2021/11/27 09:11:19;;;;;;;4.78;1.58;;;;;;;4.20;88.63;97921.56;21081242;28;20048;-81
2021/11/27 09:21:21;;;;;;;3.97;2.05;;;;;;;4.23;89.22;97931.84;21098399;28;20451;-82
2021/11/27 09:31:23;;;;;;;3.72;1.50;;;;;;;4.34;87.65;97934.94;21093498;28;20082;-80
2021/11/27 09:41:29;;;;;;;5.40;2.05;;;;;;;4.40;87.65;97945.09;21108377;27;20055;-81
2021/11/27 09:51:33;;;;;;;2.88;1.40;;;;;;;4.44;86.89;97944.13;21272670;27;20480;-81
2021/11/27 10:01:37;;;;;;;3.95;1.58;;;;;;;4.44;86.28;97961.41;21241334;27;20500;-81
2021/11/27 10:11:40;;;;;;;6.03;2.60;;;;;;;4.40;87.53;97964.97;21230080;27;20048;-84
2021/11/27 10:21:41;;;;;;;3.47;1.65;;;;;;;4.33;87.12;97972.94;21179127;28;20047;-81
2021/11/27 10:31:45;;;;;;;3.25;1.40;;;;;;;4.38;86.91;97981.44;21153077;28;20044;-81
2021/11/27 10:42:01;;;;;;;5.68;1.50;;;;;;;4.31;88.02;97995.47;21173942;28;20051;-81
2021/11/27 10:52:11;;;;;;;4.30;1.85;;;;;;;4.31;88.23;98008.44;21151928;28;20052;-81
2021/11/27 11:02:15;;;;;;;5.28;1.75;;;;;;;4.34;87.57;98015.25;21166188;28;20463;-81
2021/11/27 11:12:17;;;;;;;3.90;1.25;;;;;;;4.48;86.68;98022.63;21148508;28;20496;-81
2021/11/27 11:22:20;;;;;;;3.78;1.60;;;;;;;4.46;87.42;98022.66;21147245;28;20063;-82
2021/11/27 11:32:27;;;;;;;3.75;1.67;;;;;;;4.50;88.70;98034.63;21149094;28;20073;-82
2021/11/27 11:42:29;;;;;;;4.28;2.05;;;;;;;4.60;89.47;98043.00;21168923;28;20056;-82
2021/11/27 11:52:44;;;;;;;4.80;1.80;;;;;;;4.67;88.65;98051.44;21145028;28;20039;-81
2021/11/27 12:02:47;;;;;;;5.22;2.42;;;;;;;4.63;89.07;98056.69;21160684;28;20105;-83
2021/11/27 12:13:07;;;;;;;7.00;2.90;;;;;;;4.78;88.16;98055.38;21161336;28;20051;-82
2021/11/27 12:23:32;;;;;;;6.53;2.95;;;;;;;4.50;89.06;98067.47;21143529;28;20047;-81
2021/11/27 12:33:44;;;;;;;6.32;3.42;;;;;;;4.63;89.28;98079.16;21164351;28;20545;-81
2021/11/27 12:44:13;;;;;;;7.15;4.18;;;;;;;4.62;88.34;98095.63;21088120;28;20052;-80
2021/11/27 12:54:14;;;;;;;7.70;4.10;;;;;;;4.55;87.82;98114.81;21079096;28;20048;-81
2021/11/27 13:04:18;;;;;;;7.47;4.55;;;;;;;4.61;87.87;98125.03;21082308;28;20044;-81
2021/11/27 13:14:25;;;;;;;8.93;5.10;;;;;;;4.66;87.90;98138.72;21083773;28;20386;-81
2021/11/27 13:24:26;;;;;;;7.88;4.57;;;;;;;4.65;87.78;98144.78;21058563;28;20091;-80
2021/11/27 13:34:28;;;;;;;10.02;5.38;;;;;;;4.56;88.91;98158.00;21054684;28;20500;-81
2021/11/27 13:44:50;;;;;;;4.85;2.63;;;;;;;4.48;87.82;98159.94;21074114;28;20052;-82
2021/11/27 13:54:55;;;;;;;4.70;2.10;;;;;;;4.48;87.23;98180.66;21064638;28;20481;-81
2021/11/27 14:04:57;;;;;;;;;;;;;;;4.70;85.34;98168.84;21070278;28;20105;-81
2021/11/27 14:15:05;;;;;;;5.03;2.20;;;;;;;4.42;86.47;98186.88;21070299;28;19920;-81
2021/11/27 14:25:10;;;;;;;6.10;2.95;;;;;;;4.12;87.04;98198.88;21102329;28;20052;-82
2021/11/27 14:35:32;;;;;;;5.95;2.75;;;;;;;3.94;87.61;98201.91;21092829;28;20445;-85
2021/11/27 14:45:49;;;;;;;5.82;2.53;;;;;;;3.80;87.49;98212.59;21083955;28;20044;-82
2021/11/27 14:55:51;;;;;;;6.93;3.42;;;;;;;3.74;89.12;98218.78;21108444;28;20048;-81
2021/11/27 15:05:52;;;;;;;6.88;2.67;;;;;;;3.54;88.67;98220.94;21071353;28;20097;-82
2021/11/27 15:15:54;;;;;;;8.27;3.28;;;;;;;3.33;89.85;98223.13;21176677;27;20056;-81
2021/11/27 15:25:58;;;;;;;9.93;5.20;;;;;;;3.08;90.26;98234.88;21187233;28;20058;-83
2021/11/27 15:36:00;;;;;;;7.10;3.60;;;;;;;2.80;91.64;98230.25;21176938;28;20043;-83
2021/11/27 15:46:02;;;;;;;9.68;4.80;;;;;;;2.54;91.54;98245.41;21163470;28;20058;-82
2021/11/27 15:56:05;;;;;;;11.77;6.05;;;;;;;2.30;93.10;98278.53;21071643;28;20132;-83
2021/11/27 16:06:09;;;;;;;15.03;9.53;;;;;;;2.10;93.50;98279.69;21136657;28;20270;-82
2021/11/27 16:16:11;;;;;;;28.98;13.90;;;;;;;1.91;94.20;98279.97;21176527;28;20077;-82
2021/11/27 16:26:12;;;;;;;14.02;7.40;;;;;;;1.73;94.46;98291.44;21184436;27;20061;-82
2021/11/27 16:36:15;;;;;;;16.20;9.13;;;;;;;1.60;94.54;98305.38;21255648;27;20112;-82
2021/11/27 16:46:17;;;;;;;14.00;7.90;;;;;;;1.43;94.91;98302.16;21256438;27;20569;-82
2021/11/27 16:56:19;;;;;;;14.70;8.23;;;;;;;1.34;95.57;98307.44;21256916;28;20568;-82
2021/11/27 17:06:23;;;;;;;29.17;15.93;;;;;;;1.27;96.23;98328.13;21249112;28;20043;-82
2021/11/27 17:16:25;;;;;;;16.42;9.60;;;;;;;1.17;95.99;98341.16;21242644;28;20150;-82
2021/11/27 17:26:26;;;;;;;19.35;11.23;;;;;;;1.06;96.18;98338.69;21233038;27;20047;-83
2021/11/27 17:36:28;;;;;;;18.92;11.43;;;;;;;0.89;96.17;98356.03;21193357;27;20070;-84
2021/11/27 17:46:30;;;;;;;20.23;11.52;;;;;;;0.77;96.36;98355.31;21163725;28;20077;-83
2021/11/27 17:56:32;;;;;;;20.77;12.52;;;;;;;0.65;96.16;98363.13;21137303;28;20055;-82
2021/11/27 18:06:34;;;;;;;18.42;10.90;;;;;;;0.51;96.66;98365.81;21076282;28;20455;-81
2021/11/27 18:16:37;;;;;;;21.27;12.75;;;;;;;0.43;96.53;98361.59;21071544;28;20044;-82
2021/11/27 18:27:26;;;;;;;21.77;13.35;;;;;;;0.35;96.96;98389.13;21067587;28;20055;-82
2021/11/27 18:37:00;;;;;;;26.05;14.82;;;;;;;0.36;96.72;98390.84;21102757;28;20056;-83
2021/11/27 18:47:03;;;;;;;28.90;17.02;;;;;;;0.29;97.33;98400.34;21075471;28;20060;-82
2021/11/27 18:57:06;;;;;;;32.90;18.20;;;;;;;0.07;96.21;98399.59;21092572;28;20048;-81
2021/11/27 19:07:08;;;;;;;38.95;22.67;;;;;;;-0.11;96.29;98409.97;21070731;28;20101;-82
2021/11/27 19:17:09;;;;;;;27.55;17.00;;;;;;;-0.16;96.86;98417.72;21133994;28;20048;-82
2021/11/27 19:27:11;;;;;;;29.20;17.80;;;;;;;0.12;96.39;98421.00;21174025;28;20043;-81
2021/11/27 19:37:13;;;;;;;28.90;17.42;;;;;;;0.38;96.17;98427.69;21172678;28;20109;-81
2021/11/27 19:47:15;;;;;;;33.55;19.45;;;;;;;0.61;96.34;98443.84;21154010;28;20051;-82
2021/11/27 19:57:17;;;;;;;34.40;21.45;;;;;;;0.67;95.97;98433.53;21154591;28;20047;-82
2021/11/27 20:07:18;;;;;;;33.22;18.77;;;;;;;0.73;95.88;98423.16;21153054;28;20052;-81
2021/11/27 20:17:20;;;;;;;30.52;18.10;;;;;;;0.79;95.12;98447.16;21150557;28;20100;-82
2021/11/27 20:27:21;;;;;;;23.70;12.82;;;;;;;0.74;95.38;98452.34;21172830;28;20172;-81
2021/11/27 20:37:23;;;;;;;21.38;12.60;;;;;;;0.77;96.02;98448.03;21153794;28;20055;-82
2021/11/27 20:47:25;;;;;;;17.95;10.85;;;;;;;0.83;96.21;98444.56;21172983;28;20096;-82
2021/11/27 20:57:28;;;;;;;21.05;11.13;;;;;;;0.95;95.93;98436.69;21148664;28;20485;-81
2021/11/27 21:07:30;;;;;;;16.53;10.00;;;;;;;1.05;95.37;98429.75;21183152;28;20056;-81
2021/11/27 21:17:31;;;;;;;22.45;13.85;;;;;;;1.11;95.33;98439.16;21163639;28;20128;-81
2021/11/27 21:27:33;;;;;;;21.38;12.10;;;;;;;1.14;94.87;98434.81;21161793;28;20493;-83
2021/11/27 21:37:36;;;;;;;20.95;12.20;;;;;;;1.14;94.72;98428.81;21177436;28;20601;-82
2021/11/27 21:47:37;;;;;;;21.45;13.70;;;;;;;1.23;95.23;98427.00;21159647;28;20451;-82
2021/11/27 21:57:39;;;;;;;32.25;18.10;;;;;;;1.23;95.25;98424.41;21160722;28;20105;-83
2021/11/27 22:07:41;;;;;;;25.10;15.63;;;;;;;1.19;94.51;98447.66;21174416;28;20043;-81
2021/11/27 22:17:44;;;;;;;27.33;15.73;;;;;;;1.12;94.21;98451.19;21154883;28;20123;-82
2021/11/27 22:27:45;;;;;;;39.72;22.95;;;;;;;1.24;94.34;98445.88;21171094;28;20051;-82
2021/11/27 22:37:46;;;;;;;43.53;24.08;;;;;;;1.36;95.36;98437.19;21152627;28;20043;-83
2021/11/27 22:47:48;;;;;;;31.05;18.45;;;;;;;1.43;94.01;98446.56;21157996;28;20055;-82
2021/11/27 22:57:50;;;;;;;33.17;19.25;;;;;;;1.50;94.63;98430.16;21152614;28;20059;-83
2021/11/27 23:07:51;;;;;;;27.52;14.20;;;;;;;1.50;94.31;98417.28;21147464;28;20523;-82
2021/11/27 23:17:54;;;;;;;21.60;12.60;;;;;;;1.51;94.70;98418.97;21148539;28;20051;-82
2021/11/27 23:27:55;;;;;;;18.83;11.73;;;;;;;1.60;94.44;98411.13;21170155;28;20044;-82
2021/11/27 23:37:57;;;;;;;18.35;10.00;;;;;;;1.63;93.77;98417.97;21170913;28;20043;-83
2021/11/27 23:47:58;;;;;;;13.18;8.75;;;;;;;1.63;93.18;98421.44;21153297;28;20112;-83
2021/11/27 23:58:01;;;;;;;18.40;9.98;;;;;;;1.66;93.61;98413.63;21144648;28;20052;-83
